Dronryp, Netherlands
Current Conditions -  °F | °C
As of 8:25 AM on Sunday 26 Oct 2014 (Local Time) from EHLW Reporting Station
Overcast Overcast  
Wind Chill: 52°   Ceiling: 3700
Heat Index: 52°   Visibility: 6mi
Dew Point: 50°   Wind: 9mph
Humidity: 94%   Direction: 200°SSW
Pressure: 30.15"   Gusts: NA
Location:  53.2°N, 5.65°E
Report Text: EHLW 260625Z AUTO 20008KT 9999 OVC037 11/10 Q1021 BLU
Loading
Personal Weather Stations






























Interactive Weather Map
Tropical Storm Tracking
New forecast layout! Learn more

10-Day Weather Forecast

Advertisements
Track Severe Weather on mobile